sensor_id;sensor_type;location;lat;lon;timestamp;P1;durP1;ratioP1;P2;durP2;ratioP2
51020;SDS011;38907;45.562;8.856;2023-02-01T00:01:09;89.80;;;46.08;;
51020;SDS011;38907;45.562;8.856;2023-02-01T00:11:12;86.53;;;41.45;;
51020;SDS011;38907;45.562;8.856;2023-02-01T00:16:16;90.22;;;42.97;;
51020;SDS011;38907;45.562;8.856;2023-02-01T00:21:20;79.90;;;39.22;;
51020;SDS011;38907;45.562;8.856;2023-02-01T00:26:22;73.35;;;37.75;;
51020;SDS011;38907;45.562;8.856;2023-02-01T00:31:30;74.53;;;34.80;;
51020;SDS011;38907;45.562;8.856;2023-02-01T00:36:32;64.13;;;34.20;;
51020;SDS011;38907;45.562;8.856;2023-02-01T00:41:34;74.47;;;35.63;;
51020;SDS011;38907;45.562;8.856;2023-02-01T00:46:37;71.43;;;36.17;;
51020;SDS011;38907;45.562;8.856;2023-02-01T00:51:39;67.35;;;34.60;;
51020;SDS011;38907;45.562;8.856;2023-02-01T00:56:41;68.65;;;32.88;;
51020;SDS011;38907;45.562;8.856;2023-02-01T01:01:44;64.90;;;32.03;;
51020;SDS011;38907;45.562;8.856;2023-02-01T01:06:46;72.15;;;31.25;;
51020;SDS011;38907;45.562;8.856;2023-02-01T01:11:48;60.42;;;30.05;;
51020;SDS011;38907;45.562;8.856;2023-02-01T01:16:52;57.10;;;30.40;;
51020;SDS011;38907;45.562;8.856;2023-02-01T01:21:54;49.90;;;26.93;;
51020;SDS011;38907;45.562;8.856;2023-02-01T01:26:56;48.28;;;26.33;;
51020;SDS011;38907;45.562;8.856;2023-02-01T01:31:59;53.58;;;26.08;;
51020;SDS011;38907;45.562;8.856;2023-02-01T01:37:01;50.13;;;27.52;;
51020;SDS011;38907;45.562;8.856;2023-02-01T01:42:03;48.05;;;25.42;;
51020;SDS011;38907;45.562;8.856;2023-02-01T01:47:06;46.70;;;25.40;;
51020;SDS011;38907;45.562;8.856;2023-02-01T01:52:09;46.45;;;27.02;;
51020;SDS011;38907;45.562;8.856;2023-02-01T01:57:13;55.03;;;28.08;;
51020;SDS011;38907;45.562;8.856;2023-02-01T02:02:19;53.90;;;27.38;;
51020;SDS011;38907;45.562;8.856;2023-02-01T02:07:21;49.33;;;27.10;;
51020;SDS011;38907;45.562;8.856;2023-02-01T02:12:27;41.88;;;23.30;;
51020;SDS011;38907;45.562;8.856;2023-02-01T02:17:32;40.70;;;20.70;;
51020;SDS011;38907;45.562;8.856;2023-02-01T02:22:43;49.05;;;21.48;;
51020;SDS011;38907;45.562;8.856;2023-02-01T02:28:10;41.28;;;22.83;;
51020;SDS011;38907;45.562;8.856;2023-02-01T02:33:28;40.60;;;22.02;;
51020;SDS011;38907;45.562;8.856;2023-02-01T02:38:48;44.97;;;23.85;;
51020;SDS011;38907;45.562;8.856;2023-02-01T02:43:58;38.03;;;20.83;;
51020;SDS011;38907;45.562;8.856;2023-02-01T02:49:20;41.10;;;20.50;;
51020;SDS011;38907;45.562;8.856;2023-02-01T02:54:29;36.10;;;20.27;;
51020;SDS011;38907;45.562;8.856;2023-02-01T02:59:51;40.83;;;20.67;;
51020;SDS011;38907;45.562;8.856;2023-02-01T03:05:13;39.00;;;20.67;;
51020;SDS011;38907;45.562;8.856;2023-02-01T03:15:18;37.80;;;18.48;;
51020;SDS011;38907;45.562;8.856;2023-02-01T03:20:24;32.88;;;18.02;;
51020;SDS011;38907;45.562;8.856;2023-02-01T03:25:29;31.83;;;17.58;;
51020;SDS011;38907;45.562;8.856;2023-02-01T03:30:34;34.22;;;17.73;;
51020;SDS011;38907;45.562;8.856;2023-02-01T03:35:40;32.42;;;17.23;;
51020;SDS011;38907;45.562;8.856;2023-02-01T03:40:52;28.27;;;15.95;;
51020;SDS011;38907;45.562;8.856;2023-02-01T03:46:00;30.58;;;16.25;;
51020;SDS011;38907;45.562;8.856;2023-02-01T03:51:07;32.33;;;16.63;;
51020;SDS011;38907;45.562;8.856;2023-02-01T03:56:11;28.75;;;15.63;;
51020;SDS011;38907;45.562;8.856;2023-02-01T04:01:14;35.65;;;16.60;;
51020;SDS011;38907;45.562;8.856;2023-02-01T04:06:17;33.88;;;16.73;;
51020;SDS011;38907;45.562;8.856;2023-02-01T04:11:19;32.70;;;16.50;;
51020;SDS011;38907;45.562;8.856;2023-02-01T04:16:20;28.58;;;16.33;;
51020;SDS011;38907;45.562;8.856;2023-02-01T04:21:24;33.17;;;17.48;;
51020;SDS011;38907;45.562;8.856;2023-02-01T04:26:26;32.60;;;16.88;;
51020;SDS011;38907;45.562;8.856;2023-02-01T04:31:27;30.63;;;17.38;;
51020;SDS011;38907;45.562;8.856;2023-02-01T04:36:31;30.35;;;16.15;;
51020;SDS011;38907;45.562;8.856;2023-02-01T04:41:33;31.45;;;16.55;;
51020;SDS011;38907;45.562;8.856;2023-02-01T04:46:34;37.20;;;16.00;;
51020;SDS011;38907;45.562;8.856;2023-02-01T04:51:38;28.67;;;16.58;;
51020;SDS011;38907;45.562;8.856;2023-02-01T05:01:42;33.47;;;16.33;;
51020;SDS011;38907;45.562;8.856;2023-02-01T05:06:45;28.85;;;15.30;;
51020;SDS011;38907;45.562;8.856;2023-02-01T05:11:47;33.10;;;14.43;;
51020;SDS011;38907;45.562;8.856;2023-02-01T05:17:06;28.02;;;13.52;;
51020;SDS011;38907;45.562;8.856;2023-02-01T05:22:09;27.77;;;14.52;;
51020;SDS011;38907;45.562;8.856;2023-02-01T05:27:11;24.25;;;14.07;;
51020;SDS011;38907;45.562;8.856;2023-02-01T05:32:13;26.42;;;15.52;;
51020;SDS011;38907;45.562;8.856;2023-02-01T05:37:16;30.70;;;15.07;;
51020;SDS011;38907;45.562;8.856;2023-02-01T05:42:18;24.63;;;13.45;;
51020;SDS011;38907;45.562;8.856;2023-02-01T05:47:20;21.95;;;12.50;;
51020;SDS011;38907;45.562;8.856;2023-02-01T05:52:23;24.75;;;14.82;;
51020;SDS011;38907;45.562;8.856;2023-02-01T05:57:25;29.85;;;14.73;;
51020;SDS011;38907;45.562;8.856;2023-02-01T06:02:27;22.80;;;13.00;;
51020;SDS011;38907;45.562;8.856;2023-02-01T06:07:30;26.77;;;12.43;;
51020;SDS011;38907;45.562;8.856;2023-02-01T06:12:32;26.80;;;12.38;;
51020;SDS011;38907;45.562;8.856;2023-02-01T06:17:34;25.23;;;12.05;;
51020;SDS011;38907;45.562;8.856;2023-02-01T06:22:37;19.42;;;11.05;;
51020;SDS011;38907;45.562;8.856;2023-02-01T06:32:41;18.90;;;11.55;;
51020;SDS011;38907;45.562;8.856;2023-02-01T06:37:45;22.35;;;11.27;;
51020;SDS011;38907;45.562;8.856;2023-02-01T06:42:47;24.65;;;13.52;;
51020;SDS011;38907;45.562;8.856;2023-02-01T06:47:50;20.00;;;10.90;;
51020;SDS011;38907;45.562;8.856;2023-02-01T06:52:53;18.38;;;11.05;;
51020;SDS011;38907;45.562;8.856;2023-02-01T06:57:55;20.55;;;10.82;;
51020;SDS011;38907;45.562;8.856;2023-02-01T07:02:57;21.67;;;10.35;;
51020;SDS011;38907;45.562;8.856;2023-02-01T07:08:01;21.97;;;10.63;;
51020;SDS011;38907;45.562;8.856;2023-02-01T07:13:03;20.95;;;9.85;;
51020;SDS011;38907;45.562;8.856;2023-02-01T07:18:05;18.90;;;10.02;;
51020;SDS011;38907;45.562;8.856;2023-02-01T07:23:08;21.13;;;10.40;;
51020;SDS011;38907;45.562;8.856;2023-02-01T07:28:11;23.83;;;10.63;;
51020;SDS011;38907;45.562;8.856;2023-02-01T07:33:13;29.25;;;15.10;;
51020;SDS011;38907;45.562;8.856;2023-02-01T07:38:16;23.90;;;12.82;;
51020;SDS011;38907;45.562;8.856;2023-02-01T07:43:19;30.00;;;16.90;;
51020;SDS011;38907;45.562;8.856;2023-02-01T07:48:21;25.85;;;14.93;;
51020;SDS011;38907;45.562;8.856;2023-02-01T07:53:25;28.02;;;13.88;;
51020;SDS011;38907;45.562;8.856;2023-02-01T07:58:27;22.23;;;12.60;;
51020;SDS011;38907;45.562;8.856;2023-02-01T08:03:31;29.52;;;15.07;;
51020;SDS011;38907;45.562;8.856;2023-02-01T08:08:34;24.02;;;13.38;;
51020;SDS011;38907;45.562;8.856;2023-02-01T08:13:36;25.88;;;15.10;;
51020;SDS011;38907;45.562;8.856;2023-02-01T08:18:38;36.60;;;17.80;;
51020;SDS011;38907;45.562;8.856;2023-02-01T08:23:42;30.52;;;15.45;;
51020;SDS011;38907;45.562;8.856;2023-02-01T08:28:46;22.48;;;11.73;;
51020;SDS011;38907;45.562;8.856;2023-02-01T08:33:50;22.30;;;12.23;;
51020;SDS011;38907;45.562;8.856;2023-02-01T08:38:55;42.35;;;20.15;;
51020;SDS011;38907;45.562;8.856;2023-02-01T08:43:56;28.52;;;17.52;;
51020;SDS011;38907;45.562;8.856;2023-02-01T08:48:58;30.75;;;18.17;;
51020;SDS011;38907;45.562;8.856;2023-02-01T08:54:02;29.30;;;15.38;;
51020;SDS011;38907;45.562;8.856;2023-02-01T08:59:03;21.02;;;12.32;;
51020;SDS011;38907;45.562;8.856;2023-02-01T09:04:05;23.20;;;12.35;;
51020;SDS011;38907;45.562;8.856;2023-02-01T09:09:08;25.42;;;13.30;;
51020;SDS011;38907;45.562;8.856;2023-02-01T09:14:10;26.15;;;14.27;;
51020;SDS011;38907;45.562;8.856;2023-02-01T09:19:12;22.17;;;12.02;;
51020;SDS011;38907;45.562;8.856;2023-02-01T09:24:16;19.05;;;11.73;;
51020;SDS011;38907;45.562;8.856;2023-02-01T09:29:18;17.33;;;10.80;;
51020;SDS011;38907;45.562;8.856;2023-02-01T09:34:20;19.17;;;10.32;;
51020;SDS011;38907;45.562;8.856;2023-02-01T09:39:23;18.88;;;9.65;;
51020;SDS011;38907;45.562;8.856;2023-02-01T09:49:43;27.42;;;12.52;;
51020;SDS011;38907;45.562;8.856;2023-02-01T09:54:54;29.60;;;15.43;;
51020;SDS011;38907;45.562;8.856;2023-02-01T10:00:03;30.65;;;15.25;;
51020;SDS011;38907;45.562;8.856;2023-02-01T10:05:12;26.58;;;14.85;;
51020;SDS011;38907;45.562;8.856;2023-02-01T10:10:19;32.38;;;16.20;;
51020;SDS011;38907;45.562;8.856;2023-02-01T10:15:30;26.77;;;14.73;;
51020;SDS011;38907;45.562;8.856;2023-02-01T10:20:44;26.00;;;12.52;;
51020;SDS011;38907;45.562;8.856;2023-02-01T10:25:54;22.95;;;11.77;;
51020;SDS011;38907;45.562;8.856;2023-02-01T10:30:57;29.63;;;11.25;;
51020;SDS011;38907;45.562;8.856;2023-02-01T10:36:01;25.77;;;10.00;;
51020;SDS011;38907;45.562;8.856;2023-02-01T10:41:13;19.73;;;10.25;;
51020;SDS011;38907;45.562;8.856;2023-02-01T10:46:18;19.23;;;8.98;;
51020;SDS011;38907;45.562;8.856;2023-02-01T10:51:21;19.20;;;9.10;;
51020;SDS011;38907;45.562;8.856;2023-02-01T10:56:27;15.43;;;7.97;;
51020;SDS011;38907;45.562;8.856;2023-02-01T11:01:33;15.82;;;8.57;;
51020;SDS011;38907;45.562;8.856;2023-02-01T11:06:39;17.90;;;9.00;;
51020;SDS011;38907;45.562;8.856;2023-02-01T11:11:53;16.77;;;8.75;;
51020;SDS011;38907;45.562;8.856;2023-02-01T11:16:58;16.33;;;7.88;;
51020;SDS011;38907;45.562;8.856;2023-02-01T11:22:01;19.17;;;8.45;;
51020;SDS011;38907;45.562;8.856;2023-02-01T11:32:21;22.15;;;9.65;;
51020;SDS011;38907;45.562;8.856;2023-02-01T11:37:25;24.75;;;10.70;;
51020;SDS011;38907;45.562;8.856;2023-02-01T11:42:30;20.67;;;8.98;;
51020;SDS011;38907;45.562;8.856;2023-02-01T11:47:38;24.73;;;10.13;;
51020;SDS011;38907;45.562;8.856;2023-02-01T11:52:43;17.20;;;9.77;;
51020;SDS011;38907;45.562;8.856;2023-02-01T11:58:00;27.10;;;10.73;;
51020;SDS011;38907;45.562;8.856;2023-02-01T12:08:44;30.55;;;12.25;;
51020;SDS011;38907;45.562;8.856;2023-02-01T12:14:05;33.72;;;12.82;;
51020;SDS011;38907;45.562;8.856;2023-02-01T12:19:27;29.45;;;15.00;;
51020;SDS011;38907;45.562;8.856;2023-02-01T12:24:43;53.65;;;24.52;;
51020;SDS011;38907;45.562;8.856;2023-02-01T12:30:13;28.17;;;13.43;;
51020;SDS011;38907;45.562;8.856;2023-02-01T12:35:36;27.58;;;13.20;;
51020;SDS011;38907;45.562;8.856;2023-02-01T12:40:51;24.00;;;12.40;;
51020;SDS011;38907;45.562;8.856;2023-02-01T12:46:06;25.40;;;11.60;;
51020;SDS011;38907;45.562;8.856;2023-02-01T12:51:12;25.02;;;11.85;;
51020;SDS011;38907;45.562;8.856;2023-02-01T12:56:20;26.58;;;12.07;;
51020;SDS011;38907;45.562;8.856;2023-02-01T13:01:26;26.45;;;13.18;;
51020;SDS011;38907;45.562;8.856;2023-02-01T13:06:33;33.47;;;14.80;;
51020;SDS011;38907;45.562;8.856;2023-02-01T13:11:39;23.55;;;12.60;;
51020;SDS011;38907;45.562;8.856;2023-02-01T13:16:47;20.33;;;10.52;;
51020;SDS011;38907;45.562;8.856;2023-02-01T13:21:51;21.10;;;10.50;;
51020;SDS011;38907;45.562;8.856;2023-02-01T13:26:59;37.00;;;14.70;;
51020;SDS011;38907;45.562;8.856;2023-02-01T13:32:10;19.57;;;10.27;;
51020;SDS011;38907;45.562;8.856;2023-02-01T13:37:29;51.28;;;19.52;;
51020;SDS011;38907;45.562;8.856;2023-02-01T13:42:48;21.35;;;9.85;;
51020;SDS011;38907;45.562;8.856;2023-02-01T13:47:55;18.27;;;8.27;;
51020;SDS011;38907;45.562;8.856;2023-02-01T13:52:59;16.05;;;7.32;;
51020;SDS011;38907;45.562;8.856;2023-02-01T13:58:14;17.08;;;7.80;;
51020;SDS011;38907;45.562;8.856;2023-02-01T14:03:21;16.33;;;7.95;;
51020;SDS011;38907;45.562;8.856;2023-02-01T14:08:44;13.27;;;6.43;;
51020;SDS011;38907;45.562;8.856;2023-02-01T14:13:52;12.05;;;7.38;;
51020;SDS011;38907;45.562;8.856;2023-02-01T14:19:00;17.02;;;6.60;;
51020;SDS011;38907;45.562;8.856;2023-02-01T14:24:04;13.13;;;7.35;;
51020;SDS011;38907;45.562;8.856;2023-02-01T14:29:21;16.88;;;8.15;;
51020;SDS011;38907;45.562;8.856;2023-02-01T14:34:31;9.25;;;5.05;;
51020;SDS011;38907;45.562;8.856;2023-02-01T14:39:49;16.60;;;6.53;;
51020;SDS011;38907;45.562;8.856;2023-02-01T14:44:56;16.20;;;7.50;;
51020;SDS011;38907;45.562;8.856;2023-02-01T14:50:38;12.32;;;6.07;;
51020;SDS011;38907;45.562;8.856;2023-02-01T14:55:42;11.13;;;6.43;;
51020;SDS011;38907;45.562;8.856;2023-02-01T15:00:47;17.15;;;5.65;;
51020;SDS011;38907;45.562;8.856;2023-02-01T15:05:55;16.27;;;6.00;;
51020;SDS011;38907;45.562;8.856;2023-02-01T15:10:58;19.50;;;7.30;;
51020;SDS011;38907;45.562;8.856;2023-02-01T15:16:05;15.02;;;6.53;;
51020;SDS011;38907;45.562;8.856;2023-02-01T15:21:17;15.52;;;7.22;;
51020;SDS011;38907;45.562;8.856;2023-02-01T15:26:27;14.90;;;7.80;;
51020;SDS011;38907;45.562;8.856;2023-02-01T15:31:36;15.48;;;7.32;;
51020;SDS011;38907;45.562;8.856;2023-02-01T15:36:42;20.02;;;7.90;;
51020;SDS011;38907;45.562;8.856;2023-02-01T15:41:48;21.00;;;8.68;;
51020;SDS011;38907;45.562;8.856;2023-02-01T15:46:52;19.20;;;8.68;;
51020;SDS011;38907;45.562;8.856;2023-02-01T15:51:55;21.73;;;8.40;;
51020;SDS011;38907;45.562;8.856;2023-02-01T15:57:00;17.58;;;7.82;;
51020;SDS011;38907;45.562;8.856;2023-02-01T16:02:03;17.13;;;8.65;;
51020;SDS011;38907;45.562;8.856;2023-02-01T16:12:31;18.65;;;8.30;;
51020;SDS011;38907;45.562;8.856;2023-02-01T16:17:35;18.35;;;8.15;;
51020;SDS011;38907;45.562;8.856;2023-02-01T16:22:38;17.33;;;8.00;;
51020;SDS011;38907;45.562;8.856;2023-02-01T16:27:40;16.08;;;8.10;;
51020;SDS011;38907;45.562;8.856;2023-02-01T16:32:41;19.13;;;8.18;;
51020;SDS011;38907;45.562;8.856;2023-02-01T16:37:45;15.80;;;7.25;;
51020;SDS011;38907;45.562;8.856;2023-02-01T16:42:48;14.05;;;7.85;;
51020;SDS011;38907;45.562;8.856;2023-02-01T16:47:52;18.77;;;8.85;;
51020;SDS011;38907;45.562;8.856;2023-02-01T16:52:57;15.65;;;8.30;;
51020;SDS011;38907;45.562;8.856;2023-02-01T16:57:59;18.00;;;7.60;;
51020;SDS011;38907;45.562;8.856;2023-02-01T17:03:01;12.57;;;7.15;;
51020;SDS011;38907;45.562;8.856;2023-02-01T17:08:05;15.30;;;7.63;;
51020;SDS011;38907;45.562;8.856;2023-02-01T17:13:10;19.73;;;7.30;;
51020;SDS011;38907;45.562;8.856;2023-02-01T17:18:14;25.88;;;10.93;;
51020;SDS011;38907;45.562;8.856;2023-02-01T17:23:19;20.33;;;8.60;;
51020;SDS011;38907;45.562;8.856;2023-02-01T17:33:23;22.40;;;12.43;;
51020;SDS011;38907;45.562;8.856;2023-02-01T17:38:28;36.45;;;17.35;;
51020;SDS011;38907;45.562;8.856;2023-02-01T17:43:30;20.85;;;12.45;;
51020;SDS011;38907;45.562;8.856;2023-02-01T17:48:32;26.10;;;13.50;;
51020;SDS011;38907;45.562;8.856;2023-02-01T17:53:35;28.48;;;14.15;;
51020;SDS011;38907;45.562;8.856;2023-02-01T17:58:37;23.45;;;14.52;;
51020;SDS011;38907;45.562;8.856;2023-02-01T18:03:39;26.63;;;12.13;;
51020;SDS011;38907;45.562;8.856;2023-02-01T18:13:46;24.15;;;12.45;;
51020;SDS011;38907;45.562;8.856;2023-02-01T18:18:48;21.40;;;11.43;;
51020;SDS011;38907;45.562;8.856;2023-02-01T18:23:52;21.25;;;10.93;;
51020;SDS011;38907;45.562;8.856;2023-02-01T18:28:53;28.25;;;13.52;;
51020;SDS011;38907;45.562;8.856;2023-02-01T18:33:56;19.83;;;10.35;;
51020;SDS011;38907;45.562;8.856;2023-02-01T18:39:00;22.30;;;10.15;;
51020;SDS011;38907;45.562;8.856;2023-02-01T18:44:02;20.70;;;11.05;;
51020;SDS011;38907;45.562;8.856;2023-02-01T18:49:04;21.38;;;10.77;;
51020;SDS011;38907;45.562;8.856;2023-02-01T18:54:09;22.52;;;10.95;;
51020;SDS011;38907;45.562;8.856;2023-02-01T18:59:11;26.23;;;11.90;;
51020;SDS011;38907;45.562;8.856;2023-02-01T19:04:13;23.77;;;10.75;;
51020;SDS011;38907;45.562;8.856;2023-02-01T19:09:17;25.60;;;12.32;;
51020;SDS011;38907;45.562;8.856;2023-02-01T19:14:19;26.20;;;12.48;;
51020;SDS011;38907;45.562;8.856;2023-02-01T19:19:20;28.75;;;13.10;;
51020;SDS011;38907;45.562;8.856;2023-02-01T19:24:24;75.13;;;32.10;;
51020;SDS011;38907;45.562;8.856;2023-02-01T19:29:27;58.30;;;21.25;;
51020;SDS011;38907;45.562;8.856;2023-02-01T19:34:29;36.83;;;17.75;;
51020;SDS011;38907;45.562;8.856;2023-02-01T19:39:32;44.90;;;20.35;;
51020;SDS011;38907;45.562;8.856;2023-02-01T19:44:36;46.20;;;19.95;;
51020;SDS011;38907;45.562;8.856;2023-02-01T19:49:38;48.33;;;20.67;;
51020;SDS011;38907;45.562;8.856;2023-02-01T19:54:41;35.90;;;18.38;;
51020;SDS011;38907;45.562;8.856;2023-02-01T19:59:43;49.72;;;21.80;;
51020;SDS011;38907;45.562;8.856;2023-02-01T20:04:45;47.33;;;22.38;;
51020;SDS011;38907;45.562;8.856;2023-02-01T20:09:48;44.13;;;20.15;;
51020;SDS011;38907;45.562;8.856;2023-02-01T20:14:50;54.92;;;24.90;;
51020;SDS011;38907;45.562;8.856;2023-02-01T20:19:52;61.17;;;28.00;;
51020;SDS011;38907;45.562;8.856;2023-02-01T20:24:55;74.20;;;30.08;;
51020;SDS011;38907;45.562;8.856;2023-02-01T20:29:58;62.10;;;28.17;;
51020;SDS011;38907;45.562;8.856;2023-02-01T20:35:00;56.42;;;26.17;;
51020;SDS011;38907;45.562;8.856;2023-02-01T20:40:04;46.40;;;25.55;;
51020;SDS011;38907;45.562;8.856;2023-02-01T20:45:06;55.42;;;26.90;;
51020;SDS011;38907;45.562;8.856;2023-02-01T20:50:09;40.83;;;22.50;;
51020;SDS011;38907;45.562;8.856;2023-02-01T20:55:13;46.08;;;21.13;;
51020;SDS011;38907;45.562;8.856;2023-02-01T21:00:15;46.33;;;23.08;;
51020;SDS011;38907;45.562;8.856;2023-02-01T21:05:17;60.58;;;32.00;;
51020;SDS011;38907;45.562;8.856;2023-02-01T21:10:21;74.32;;;38.13;;
51020;SDS011;38907;45.562;8.856;2023-02-01T21:15:22;55.00;;;30.23;;
51020;SDS011;38907;45.562;8.856;2023-02-01T21:20:25;55.03;;;29.27;;
51020;SDS011;38907;45.562;8.856;2023-02-01T21:25:29;67.75;;;31.20;;
51020;SDS011;38907;45.562;8.856;2023-02-01T21:30:31;60.22;;;29.25;;
51020;SDS011;38907;45.562;8.856;2023-02-01T21:35:33;56.92;;;29.88;;
51020;SDS011;38907;45.562;8.856;2023-02-01T21:40:36;38.38;;;22.33;;
51020;SDS011;38907;45.562;8.856;2023-02-01T21:45:38;29.52;;;16.98;;
51020;SDS011;38907;45.562;8.856;2023-02-01T21:50:40;25.55;;;15.73;;
51020;SDS011;38907;45.562;8.856;2023-02-01T21:55:43;35.40;;;14.40;;
51020;SDS011;38907;45.562;8.856;2023-02-01T22:00:45;21.73;;;11.45;;
51020;SDS011;38907;45.562;8.856;2023-02-01T22:05:48;20.17;;;11.75;;
51020;SDS011;38907;45.562;8.856;2023-02-01T22:10:51;23.60;;;12.45;;
51020;SDS011;38907;45.562;8.856;2023-02-01T22:15:54;22.88;;;11.75;;
51020;SDS011;38907;45.562;8.856;2023-02-01T22:20:57;20.85;;;12.63;;
51020;SDS011;38907;45.562;8.856;2023-02-01T22:26:01;28.58;;;10.93;;
51020;SDS011;38907;45.562;8.856;2023-02-01T22:31:08;23.52;;;11.82;;
51020;SDS011;38907;45.562;8.856;2023-02-01T22:36:10;19.63;;;11.63;;
51020;SDS011;38907;45.562;8.856;2023-02-01T22:41:15;21.38;;;11.32;;
51020;SDS011;38907;45.562;8.856;2023-02-01T22:46:18;19.67;;;11.52;;
51020;SDS011;38907;45.562;8.856;2023-02-01T22:51:25;27.63;;;11.93;;
51020;SDS011;38907;45.562;8.856;2023-02-01T22:56:31;30.85;;;11.82;;
51020;SDS011;38907;45.562;8.856;2023-02-01T23:01:34;20.88;;;11.98;;
51020;SDS011;38907;45.562;8.856;2023-02-01T23:06:36;28.13;;;12.88;;
51020;SDS011;38907;45.562;8.856;2023-02-01T23:11:40;27.90;;;12.70;;
51020;SDS011;38907;45.562;8.856;2023-02-01T23:16:43;21.83;;;13.48;;
51020;SDS011;38907;45.562;8.856;2023-02-01T23:21:46;27.53;;;13.77;;
51020;SDS011;38907;45.562;8.856;2023-02-01T23:26:49;27.50;;;14.18;;
51020;SDS011;38907;45.562;8.856;2023-02-01T23:31:51;25.30;;;14.30;;
51020;SDS011;38907;45.562;8.856;2023-02-01T23:36:53;22.02;;;14.43;;
51020;SDS011;38907;45.562;8.856;2023-02-01T23:41:57;27.97;;;15.57;;
51020;SDS011;38907;45.562;8.856;2023-02-01T23:47:00;26.50;;;14.50;;
51020;SDS011;38907;45.562;8.856;2023-02-01T23:52:02;32.58;;;15.48;;
51020;SDS011;38907;45.562;8.856;2023-02-01T23:57:06;33.97;;;16.45;;
